Time;durP1;ratioP1;P1;durP2;ratioP2;P2;SDS_P1;SDS_P2;PMS_P1;PMS_P2;Temp;Humidity;BMP_temperature;BMP_pressure;BME280_temperature;BME280_humidity;BME280_pressure;Samples;Min_cycle;Max_cycle;Signal;HPM_P1;HPM_P2
2021/12/30 00:01:50;;;;;;;2.63;0.50;;;13.70;99.90;;;;;;5051082;28;20244;-59
2021/12/30 00:04:16;;;;;;;1.13;0.60;;;13.80;99.90;;;;;;5052335;28;20196;-59
2021/12/30 00:06:42;;;;;;;0.57;0.40;;;13.80;99.90;;;;;;5052586;28;20696;-59
2021/12/30 00:09:12;;;;;;;2.35;0.43;;;13.70;99.90;;;;;;5051031;28;20170;-59
2021/12/30 00:11:38;;;;;;;1.33;0.50;;;13.70;99.90;;;;;;5052228;28;20616;-60
2021/12/30 00:14:04;;;;;;;1.03;0.40;;;13.80;99.90;;;;;;5052320;28;20352;-59
2021/12/30 00:16:30;;;;;;;2.07;0.50;;;13.80;99.90;;;;;;5052338;28;20177;-59
2021/12/30 00:18:56;;;;;;;1.40;0.40;;;13.70;99.90;;;;;;5052396;28;20173;-59
2021/12/30 00:21:23;;;;;;;0.47;0.33;;;13.80;99.90;;;;;;5051005;28;20169;-59
2021/12/30 00:23:50;;;;;;;1.43;0.50;;;13.80;99.90;;;;;;5051563;28;20186;-59
2021/12/30 00:26:18;;;;;;;0.97;0.40;;;13.80;99.90;;;;;;5052301;28;20284;-59
2021/12/30 00:28:44;;;;;;;0.30;0.30;;;13.80;99.90;;;;;;5051795;28;20165;-59
2021/12/30 00:31:10;;;;;;;0.50;0.40;;;13.80;99.90;;;;;;5052006;28;20573;-60
2021/12/30 00:33:36;;;;;;;1.13;0.60;;;13.80;99.90;;;;;;5051881;28;20173;-60
2021/12/30 00:36:06;;;;;;;2.20;0.30;;;13.80;99.90;;;;;;5052070;28;20298;-60
2021/12/30 00:38:32;;;;;;;1.10;0.40;;;13.80;99.90;;;;;;5051757;28;20176;-60
2021/12/30 00:40:58;;;;;;;1.23;0.40;;;13.80;99.90;;;;;;5051817;28;20200;-60
2021/12/30 00:43:24;;;;;;;1.60;0.40;;;13.80;99.90;;;;;;5051939;28;20250;-60
2021/12/30 00:45:50;;;;;;;1.00;0.30;;;13.80;99.90;;;;;;5051821;28;20170;-59
2021/12/30 00:48:16;;;;;;;0.60;0.30;;;13.80;99.90;;;;;;5045547;28;20177;-60
2021/12/30 00:50:43;;;;;;;2.37;0.50;;;13.80;99.90;;;;;;5031403;28;20181;-59
2021/12/30 00:53:10;;;;;;;0.87;0.30;;;13.80;99.90;;;;;;5031784;28;20166;-60
2021/12/30 00:55:37;;;;;;;1.98;0.30;;;13.90;99.90;;;;;;5031732;28;20205;-59
2021/12/30 00:58:04;;;;;;;1.02;0.20;;;13.90;99.90;;;;;;5040873;28;20181;-59
2021/12/30 01:00:30;;;;;;;0.73;0.20;;;13.90;99.90;;;;;;5051463;28;20181;-60
2021/12/30 01:02:56;;;;;;;0.80;0.40;;;13.90;99.90;;;;;;5051463;28;20177;-60
2021/12/30 01:05:22;;;;;;;2.20;0.28;;;13.90;99.90;;;;;;5051428;28;20172;-60
2021/12/30 01:07:48;;;;;;;0.43;0.30;;;14.00;99.90;;;;;;5051263;28;20263;-60
2021/12/30 01:10:17;;;;;;;0.50;0.33;;;14.00;99.90;;;;;;5051479;28;20208;-60
2021/12/30 01:12:43;;;;;;;1.17;0.27;;;14.00;99.90;;;;;;5051471;28;20640;-60
2021/12/30 01:15:12;;;;;;;0.88;0.30;;;14.10;99.90;;;;;;5051248;28;20225;-60
2021/12/30 01:20:06;;;;;;;2.37;0.33;;;14.10;99.90;;;;;;5051243;28;20177;-60
2021/12/30 01:22:33;;;;;;;0.20;0.20;;;14.10;99.90;;;;;;5050988;28;20176;-60
2021/12/30 01:25:00;;;;;;;0.52;0.20;;;14.10;99.90;;;;;;5051066;28;20185;-60
2021/12/30 01:27:27;;;;;;;0.77;0.20;;;14.10;99.90;;;;;;5050733;28;20181;-60
2021/12/30 01:29:53;;;;;;;1.17;0.30;;;14.10;99.90;;;;;;5051026;28;20177;-60
2021/12/30 01:32:19;;;;;;;1.60;0.20;;;14.10;99.90;;;;;;5050765;28;20221;-60
2021/12/30 01:34:47;;;;;;;2.13;0.33;;;14.00;99.90;;;;;;5050978;28;20208;-60
2021/12/30 01:37:14;;;;;;;0.68;0.20;;;14.00;99.90;;;;;;5050909;28;20256;-59
2021/12/30 01:39:41;;;;;;;0.20;0.20;;;14.00;99.90;;;;;;5050582;28;20168;-60
2021/12/30 01:42:08;;;;;;;0.70;0.20;;;14.00;99.90;;;;;;5050733;28;20215;-60
2021/12/30 01:44:34;;;;;;;0.27;0.27;;;14.00;99.90;;;;;;5051041;28;20173;-60
2021/12/30 01:47:01;;;;;;;0.50;0.30;;;14.00;99.90;;;;;;5050564;28;20169;-59
2021/12/30 01:49:27;;;;;;;1.90;0.80;;;14.00;99.90;;;;;;5050873;28;20173;-59
2021/12/30 01:51:55;;;;;;;0.65;0.30;;;14.00;99.90;;;;;;5050864;28;20173;-62
2021/12/30 01:54:22;;;;;;;0.32;0.20;;;14.00;99.90;;;;;;5050726;28;20293;-59
2021/12/30 01:56:50;;;;;;;1.57;0.20;;;14.00;99.90;;;;;;5050331;28;20177;-60
2021/12/30 01:59:19;;;;;;;0.93;0.30;;;14.10;99.90;;;;;;5050922;28;20173;-59
2021/12/30 02:01:45;;;;;;;0.70;0.20;;;14.10;99.90;;;;;;5049752;28;20169;-59
2021/12/30 02:04:12;;;;;;;1.30;0.32;;;14.20;99.90;;;;;;5049326;28;20896;-59
2021/12/30 02:06:38;;;;;;;2.55;0.30;;;14.20;99.90;;;;;;5048913;28;20169;-60
2021/12/30 02:09:04;;;;;;;1.60;0.10;;;14.20;99.90;;;;;;5050500;28;20177;-59
2021/12/30 02:11:30;;;;;;;3.27;0.30;;;14.20;99.90;;;;;;5050630;28;20193;-58
2021/12/30 02:13:56;;;;;;;0.23;0.20;;;14.20;99.90;;;;;;5050743;28;20241;-60
2021/12/30 02:16:23;;;;;;;1.17;0.30;;;14.20;99.90;;;;;;5049070;28;20173;-59
2021/12/30 02:18:50;;;;;;;0.15;0.10;;;14.20;99.90;;;;;;5050580;28;20644;-59
2021/12/30 02:21:17;;;;;;;1.20;0.10;;;14.30;99.90;;;;;;5050486;28;20181;-59
2021/12/30 02:23:43;;;;;;;1.70;0.20;;;14.30;99.90;;;;;;5050344;28;20726;-58
2021/12/30 02:26:15;;;;;;;0.53;0.27;;;14.30;99.90;;;;;;5050209;28;20279;-60
2021/12/30 02:28:42;;;;;;;1.43;0.27;;;14.30;99.90;;;;;;5050320;28;20169;-59
2021/12/30 02:31:12;;;;;;;1.70;0.55;;;14.30;99.90;;;;;;5050218;28;20259;-59
2021/12/30 02:33:40;;;;;;;1.70;0.30;;;14.30;99.90;;;;;;5050239;28;20706;-59
2021/12/30 02:36:07;;;;;;;1.70;0.33;;;14.40;99.90;;;;;;5049813;28;20193;-59
2021/12/30 02:38:33;;;;;;;1.50;0.30;;;14.40;99.90;;;;;;5050072;28;20184;-59
2021/12/30 02:41:00;;;;;;;1.83;0.38;;;14.40;99.90;;;;;;5050415;28;20181;-59
2021/12/30 02:43:30;;;;;;;1.10;0.55;;;14.50;99.90;;;;;;5049052;28;20177;-61
2021/12/30 02:45:58;;;;;;;1.27;0.28;;;14.40;99.90;;;;;;5050309;28;20616;-58
2021/12/30 02:48:29;;;;;;;1.33;0.22;;;14.90;99.90;;;;;;5050018;28;20258;-59
2021/12/30 02:51:01;;;;;;;2.03;0.38;;;14.40;99.90;;;;;;5049752;28;20183;-59
2021/12/30 02:53:27;;;;;;;2.58;0.68;;;14.40;99.90;;;;;;5050026;28;20220;-59
2021/12/30 02:55:53;;;;;;;1.50;0.40;;;14.40;99.90;;;;;;5050072;28;20511;-59
2021/12/30 02:58:23;;;;;;;3.70;0.77;;;14.40;99.90;;;;;;5050014;28;20211;-59
2021/12/30 03:00:55;;;;;;;1.70;0.50;;;14.40;99.90;;;;;;5049967;28;20239;-59
2021/12/30 03:03:23;;;;;;;2.27;0.50;;;14.40;99.90;;;;;;5050102;28;20235;-59
2021/12/30 03:05:50;;;;;;;6.00;0.73;;;14.30;99.90;;;;;;5050000;28;20679;-59
2021/12/30 03:08:17;;;;;;;1.23;0.40;;;14.30;99.90;;;;;;5049887;28;20253;-60
2021/12/30 03:10:43;;;;;;;2.45;0.43;;;14.30;99.90;;;;;;5050029;28;20208;-59
2021/12/30 03:13:13;;;;;;;2.50;0.60;;;14.30;99.90;;;;;;5050299;28;20204;-60
2021/12/30 03:15:41;;;;;;;2.35;0.50;;;14.30;99.90;;;;;;5053447;28;20207;-59
2021/12/30 03:18:07;;;;;;;2.13;0.57;;;14.20;99.90;;;;;;5052767;28;20175;-59
2021/12/30 03:20:36;;;;;;;4.33;0.83;;;14.20;99.90;;;;;;5053482;28;20222;-59
2021/12/30 03:23:03;;;;;;;3.40;0.70;;;14.20;99.90;;;;;;5053291;28;20291;-59
2021/12/30 03:25:30;;;;;;;3.27;0.50;;;14.20;99.90;;;;;;5052048;28;20568;-58
2021/12/30 03:27:56;;;;;;;3.10;0.60;;;14.10;99.90;;;;;;5053088;28;20193;-59
2021/12/30 03:30:23;;;;;;;3.55;0.90;;;14.10;99.90;;;;;;5052765;28;20232;-59
2021/12/30 03:32:49;;;;;;;5.80;0.85;;;14.10;99.90;;;;;;5053274;28;20181;-60
2021/12/30 03:35:15;;;;;;;3.37;0.60;;;14.10;99.90;;;;;;5053171;28;20205;-59
2021/12/30 03:37:41;;;;;;;6.25;1.02;;;14.20;99.90;;;;;;5052940;28;20181;-60
2021/12/30 03:40:11;;;;;;;6.10;0.98;;;14.20;99.90;;;;;;5053070;28;20169;-60
2021/12/30 03:42:37;;;;;;;4.50;1.05;;;14.10;99.90;;;;;;5052990;28;20177;-59
2021/12/30 03:45:07;;;;;;;6.13;1.35;;;14.20;99.90;;;;;;5052995;28;20177;-59
2021/12/30 03:47:39;;;;;;;4.68;1.20;;;14.20;99.90;;;;;;5052674;28;20177;-59
2021/12/30 03:50:09;;;;;;;9.80;1.37;;;14.20;99.90;;;;;;5052963;28;20165;-60
2021/12/30 03:52:35;;;;;;;7.85;1.20;;;14.30;99.90;;;;;;5052461;28;20173;-60
2021/12/30 03:55:01;;;;;;;6.28;1.10;;;15.00;99.90;;;;;;5052719;28;20213;-60
2021/12/30 03:57:27;;;;;;;7.72;1.40;;;14.30;99.90;;;;;;5052843;28;20231;-60
2021/12/30 03:59:53;;;;;;;11.70;1.80;;;14.30;99.90;;;;;;5052690;28;20185;-60
2021/12/30 04:02:19;;;;;;;16.17;1.90;;;14.30;99.90;;;;;;5052616;28;20178;-59
2021/12/30 04:04:45;;;;;;;13.80;2.17;;;14.30;99.90;;;;;;5052726;28;20223;-59
2021/12/30 04:07:11;;;;;;;7.60;1.43;;;14.40;99.90;;;;;;5052452;28;20169;-60
2021/12/30 04:09:37;;;;;;;11.60;2.00;;;14.40;99.90;;;;;;5051141;28;20193;-59
2021/12/30 04:12:04;;;;;;;12.30;2.03;;;14.50;99.90;;;;;;5052192;28;20184;-59
2021/12/30 04:14:30;;;;;;;13.70;2.17;;;14.50;99.90;;;;;;5052131;28;20213;-60
2021/12/30 04:16:59;;;;;;;13.07;1.70;;;14.50;99.90;;;;;;5052428;28;20227;-60
2021/12/30 04:19:25;;;;;;;12.15;2.17;;;14.50;99.90;;;;;;5052193;28;20181;-60
2021/12/30 04:21:54;;;;;;;15.88;2.20;;;14.50;99.90;;;;;;5052133;28;20179;-60
2021/12/30 04:24:20;;;;;;;12.73;2.67;;;14.50;99.90;;;;;;5051346;28;20227;-60
2021/12/30 04:26:46;;;;;;;16.25;2.47;;;14.50;99.90;;;;;;5052056;28;20178;-60
2021/12/30 04:29:12;;;;;;;10.27;2.40;;;14.50;99.90;;;;;;5051816;28;20208;-60
2021/12/30 04:31:38;;;;;;;10.68;2.42;;;14.40;99.90;;;;;;5051896;28;20233;-60
2021/12/30 04:34:04;;;;;;;16.53;2.70;;;14.50;99.90;;;;;;5052018;28;20200;-60
2021/12/30 04:36:30;;;;;;;18.73;2.33;;;14.50;99.90;;;;;;5052148;28;20539;-60
2021/12/30 04:38:55;;;;;;;16.87;3.17;;;14.50;99.90;;;;;;5051788;28;20597;-60
2021/12/30 04:41:21;;;;;;;15.47;2.80;;;14.40;99.90;;;;;;5051926;28;20697;-60
2021/12/30 04:43:48;;;;;;;19.60;3.10;;;14.40;99.90;;;;;;5051956;28;20682;-60
2021/12/30 04:46:14;;;;;;;19.02;2.72;;;14.30;99.90;;;;;;5051811;28;20169;-60
2021/12/30 04:48:40;;;;;;;22.38;3.22;;;14.30;99.90;;;;;;5051524;28;20169;-60
2021/12/30 04:51:06;;;;;;;15.65;3.00;;;14.30;99.90;;;;;;5051665;28;20185;-60
2021/12/30 04:53:32;;;;;;;18.33;2.92;;;14.30;99.90;;;;;;5047302;28;20235;-59
2021/12/30 04:55:57;;;;;;;18.67;3.35;;;14.20;99.90;;;;;;5031698;28;20182;-60
2021/12/30 04:58:25;;;;;;;12.55;2.45;;;14.20;99.90;;;;;;5038910;28;20260;-60
2021/12/30 05:00:51;;;;;;;19.80;3.20;;;14.20;99.90;;;;;;5066953;28;20177;-60
2021/12/30 05:03:17;;;;;;;21.27;3.10;;;14.20;99.90;;;;;;5051440;28;20269;-59
2021/12/30 05:05:50;;;;;;;18.88;3.10;;;14.20;99.90;;;;;;5051457;28;20173;-60
2021/12/30 05:08:19;;;;;;;19.88;3.67;;;14.20;99.90;;;;;;5050957;28;20181;-60
2021/12/30 05:10:46;;;;;;;17.77;3.17;;;14.20;99.90;;;;;;5051461;28;20234;-60
2021/12/30 05:13:13;;;;;;;16.57;3.30;;;14.20;99.90;;;;;;5051271;28;20557;-59
2021/12/30 05:15:42;;;;;;;27.43;3.73;;;14.20;99.90;;;;;;5050884;28;20258;-60
2021/12/30 05:18:11;;;;;;;26.00;3.85;;;14.20;99.90;;;;;;5051029;28;20226;-59
2021/12/30 05:20:38;;;;;;;26.17;4.25;;;14.20;99.90;;;;;;5051122;28;20177;-60
2021/12/30 05:23:04;;;;;;;25.13;4.03;;;14.10;99.90;;;;;;5051013;28;20219;-59
2021/12/30 05:25:31;;;;;;;20.57;4.07;;;14.10;99.90;;;;;;5050846;28;20215;-59
2021/12/30 05:27:57;;;;;;;20.73;3.70;;;14.10;99.90;;;;;;5031121;28;20209;-60
2021/12/30 05:30:24;;;;;;;20.30;3.77;;;14.10;99.90;;;;;;5031082;28;20217;-60
2021/12/30 05:32:53;;;;;;;34.23;4.60;;;14.10;99.90;;;;;;5031145;28;20656;-60
2021/12/30 05:35:20;;;;;;;21.87;4.13;;;14.10;99.90;;;;;;5030834;28;20206;-61
2021/12/30 05:37:46;;;;;;;20.00;3.93;;;14.10;99.90;;;;;;5049555;28;20212;-60
2021/12/30 05:40:16;;;;;;;26.77;4.63;;;14.10;99.90;;;;;;5051056;28;20200;-60
2021/12/30 05:42:43;;;;;;;25.17;3.93;;;14.10;99.90;;;;;;5050927;28;20178;-61
2021/12/30 05:45:10;;;;;;;30.53;4.67;;;14.00;99.90;;;;;;5050538;28;20208;-61
2021/12/30 05:47:36;;;;;;;23.53;3.60;;;14.90;99.90;;;;;;5050667;28;20231;-64
2021/12/30 05:50:07;;;;;;;30.70;4.70;;;14.00;99.90;;;;;;5050430;28;20180;-59
2021/12/30 05:52:34;;;;;;;23.40;3.80;;;14.00;99.90;;;;;;5050620;28;20217;-59
2021/12/30 05:55:01;;;;;;;28.73;4.28;;;13.90;99.90;;;;;;5050613;28;20208;-60
2021/12/30 05:57:26;;;;;;;22.23;3.57;;;13.90;99.90;;;;;;5050354;28;20245;-60
2021/12/30 05:59:52;;;;;;;22.37;3.77;;;13.90;99.90;;;;;;5050796;28;20639;-59
2021/12/30 06:02:18;;;;;;;24.07;3.60;;;13.90;99.90;;;;;;5050482;28;20192;-60
2021/12/30 06:04:44;;;;;;;24.33;4.40;;;13.90;99.90;;;;;;5050547;28;20173;-60
2021/12/30 06:07:10;;;;;;;20.40;3.28;;;13.90;99.90;;;;;;5050315;28;20181;-59
2021/12/30 06:09:36;;;;;;;24.13;3.95;;;13.90;99.90;;;;;;5050506;28;20169;-59
2021/12/30 06:12:03;;;;;;;22.50;3.83;;;13.80;99.90;;;;;;5050350;28;20275;-60
2021/12/30 06:14:28;;;;;;;30.27;4.13;;;13.80;99.90;;;;;;5050483;28;20291;-59
2021/12/30 06:16:54;;;;;;;15.67;3.47;;;13.80;99.90;;;;;;5050138;28;20570;-60
2021/12/30 06:19:20;;;;;;;23.70;3.70;;;13.80;99.90;;;;;;5050270;28;20179;-60
2021/12/30 06:21:46;;;;;;;20.83;3.60;;;13.80;99.90;;;;;;5050316;28;20244;-60
2021/12/30 06:24:12;;;;;;;23.03;3.60;;;13.80;99.90;;;;;;5050306;28;20199;-60
2021/12/30 06:26:38;;;;;;;22.27;3.67;;;13.80;99.90;;;;;;5050259;28;20212;-60
2021/12/30 06:29:04;;;;;;;23.63;3.95;;;13.70;99.90;;;;;;5050021;28;20602;-60
2021/12/30 06:31:30;;;;;;;24.43;3.70;;;13.80;99.90;;;;;;5050199;28;20228;-60
2021/12/30 06:33:56;;;;;;;36.40;5.43;;;13.70;99.90;;;;;;5050180;28;20302;-60
2021/12/30 06:36:22;;;;;;;24.83;3.67;;;13.80;99.90;;;;;;5049462;28;20619;-60
2021/12/30 06:38:50;;;;;;;22.70;3.87;;;13.80;99.90;;;;;;5050161;28;20181;-60
2021/12/30 06:41:16;;;;;;;18.10;3.70;;;13.80;99.90;;;;;;5050156;28;20201;-60
2021/12/30 06:43:42;;;;;;;25.37;4.27;;;13.80;99.90;;;;;;5050221;28;20169;-60
2021/12/30 06:46:09;;;;;;;27.13;4.53;;;13.80;99.90;;;;;;5049709;28;20181;-59
2021/12/30 06:48:37;;;;;;;20.10;4.27;;;13.80;99.90;;;;;;5052594;28;20177;-59
2021/12/30 06:51:05;;;;;;;23.70;4.17;;;13.90;99.90;;;;;;5053935;28;20201;-59
2021/12/30 06:53:32;;;;;;;25.00;3.67;;;13.90;99.90;;;;;;5053981;28;20268;-60
2021/12/30 06:55:57;;;;;;;22.80;3.67;;;13.90;99.90;;;;;;5053653;28;20209;-59
2021/12/30 06:58:23;;;;;;;15.63;2.93;;;13.90;99.90;;;;;;5053801;28;20169;-59
2021/12/30 07:00:50;;;;;;;18.80;3.10;;;13.90;99.90;;;;;;5053814;28;20173;-59
2021/12/30 07:03:16;;;;;;;26.73;3.53;;;13.90;99.90;;;;;;5053453;28;20181;-59
2021/12/30 07:05:42;;;;;;;18.30;3.43;;;13.90;99.90;;;;;;5053624;28;20173;-57
2021/12/30 07:08:08;;;;;;;22.30;2.53;;;13.80;99.90;;;;;;5053838;28;20218;-57
2021/12/30 07:10:34;;;;;;;18.65;2.42;;;13.90;99.90;;;;;;5052566;28;20177;-57
2021/12/30 07:13:00;;;;;;;14.20;2.53;;;13.90;99.90;;;;;;5053231;28;20170;-57
2021/12/30 07:15:26;;;;;;;25.50;3.67;;;13.90;99.90;;;;;;5053442;28;20274;-58
2021/12/30 07:17:52;;;;;;;8.57;2.17;;;13.80;99.90;;;;;;5053378;28;20173;-57
2021/12/30 07:20:18;;;;;;;12.40;2.13;;;13.80;99.90;;;;;;5052151;28;20181;-57
2021/12/30 07:22:44;;;;;;;11.37;1.77;;;13.90;99.90;;;;;;5053167;28;20594;-57
2021/12/30 07:25:16;;;;;;;14.90;2.37;;;13.90;99.90;;;;;;5053494;28;20179;-57
2021/12/30 07:27:47;;;;;;;7.23;2.03;;;13.90;99.90;;;;;;5053357;28;20169;-57
2021/12/30 07:30:13;;;;;;;9.83;2.53;;;13.90;99.90;;;;;;5052917;28;20193;-58
2021/12/30 07:32:39;;;;;;;13.87;2.17;;;13.90;99.90;;;;;;5053424;28;20189;-57
2021/12/30 07:35:05;;;;;;;15.70;2.50;;;13.90;99.90;;;;;;5053025;28;20204;-57
2021/12/30 07:37:31;;;;;;;17.40;2.13;;;13.90;99.90;;;;;;5053172;28;20173;-60
2021/12/30 07:39:57;;;;;;;15.93;2.07;;;13.90;99.90;;;;;;5052500;28;20173;-58
2021/12/30 07:42:22;;;;;;;12.57;2.10;;;14.10;99.90;;;;;;5053086;28;20229;-59
2021/12/30 07:44:48;;;;;;;13.65;2.80;;;15.00;99.90;;;;;;5053027;28;20177;-59
2021/12/30 07:47:14;;;;;;;12.47;2.37;;;14.10;99.90;;;;;;5052430;28;20204;-59
2021/12/30 07:49:40;;;;;;;15.87;2.30;;;14.10;99.90;;;;;;5052955;28;20173;-59
2021/12/30 07:52:07;;;;;;;12.37;2.20;;;14.10;99.90;;;;;;5052291;28;20177;-59
2021/12/30 07:54:34;;;;;;;14.70;2.13;;;14.10;99.90;;;;;;5052754;28;20205;-59
2021/12/30 07:57:00;;;;;;;9.47;1.73;;;14.10;99.90;;;;;;5052827;28;20651;-59
2021/12/30 07:59:26;;;;;;;11.37;2.37;;;14.10;99.90;;;;;;5051473;28;20248;-59
2021/12/30 08:01:52;;;;;;;12.93;2.67;;;14.10;99.90;;;;;;5052691;28;20173;-59
2021/12/30 08:04:18;;;;;;;11.97;2.33;;;14.00;99.90;;;;;;5052105;28;20201;-62
2021/12/30 08:06:43;;;;;;;15.43;2.70;;;14.00;99.90;;;;;;5052292;28;20530;-62
2021/12/30 08:09:09;;;;;;;13.67;2.50;;;14.10;99.90;;;;;;5052496;28;20219;-59
2021/12/30 08:11:36;;;;;;;10.77;2.20;;;14.00;99.90;;;;;;5052415;28;20170;-59
2021/12/30 08:14:01;;;;;;;13.13;1.83;;;14.00;99.90;;;;;;5052385;28;20288;-60
2021/12/30 08:16:28;;;;;;;13.70;1.83;;;14.10;99.90;;;;;;5050752;28;20205;-60
2021/12/30 08:18:54;;;;;;;13.00;2.23;;;14.10;99.90;;;;;;5052116;28;20173;-59
2021/12/30 08:21:22;;;;;;;14.93;2.50;;;14.10;99.90;;;;;;5052283;28;20261;-59
2021/12/30 08:23:51;;;;;;;10.97;2.40;;;14.10;99.90;;;;;;5051967;28;20278;-59
2021/12/30 08:26:20;;;;;;;12.70;2.17;;;14.00;99.90;;;;;;5052310;28;20166;-59
2021/12/30 08:28:47;;;;;;;13.83;2.80;;;14.00;99.90;;;;;;5052116;28;20232;-59
2021/12/30 08:31:13;;;;;;;25.50;2.90;;;14.00;99.90;;;;;;5050750;28;20232;-60
2021/12/30 08:33:40;;;;;;;20.10;2.67;;;14.00;99.90;;;;;;5051681;28;20177;-59
2021/12/30 08:36:05;;;;;;;11.17;2.47;;;14.00;99.90;;;;;;5051803;28;20223;-60
2021/12/30 08:38:32;;;;;;;14.47;2.63;;;14.00;99.90;;;;;;5052041;28;20679;-59
2021/12/30 08:40:58;;;;;;;12.97;2.10;;;14.10;99.90;;;;;;5051682;28;20663;-59
2021/12/30 08:43:25;;;;;;;14.77;2.20;;;14.10;99.90;;;;;;5050328;28;20268;-62
2021/12/30 08:45:51;;;;;;;12.10;1.70;;;14.10;99.90;;;;;;5050456;28;20173;-67
2021/12/30 08:48:17;;;;;;;12.73;1.75;;;14.10;99.90;;;;;;5051703;28;20161;-70
2021/12/30 08:50:43;;;;;;;11.37;2.20;;;14.10;99.90;;;;;;5051727;28;20633;-69
2021/12/30 08:53:09;;;;;;;11.83;1.93;;;14.20;99.90;;;;;;5051248;28;20215;-69
2021/12/30 08:55:36;;;;;;;11.70;1.80;;;14.20;99.90;;;;;;5051482;28;20212;-69
2021/12/30 08:58:03;;;;;;;13.17;2.17;;;14.20;99.90;;;;;;5051472;28;20260;-70
2021/12/30 09:00:33;;;;;;;7.73;1.40;;;14.20;99.90;;;;;;5051540;28;20583;-68
2021/12/30 09:03:04;;;;;;;10.77;1.50;;;14.30;99.90;;;;;;5050302;28;20296;-66
2021/12/30 09:05:31;;;;;;;9.37;1.63;;;14.30;99.90;;;;;;5051164;28;20280;-63
2021/12/30 09:07:56;;;;;;;10.55;1.25;;;14.40;99.90;;;;;;5051193;28;20173;-66
2021/12/30 09:10:22;;;;;;;11.10;1.77;;;14.50;99.90;;;;;;5049273;28;20671;-64
2021/12/30 09:12:50;;;;;;;8.30;1.20;;;14.50;99.90;;;;;;5050849;28;20166;-67
2021/12/30 09:15:17;;;;;;;6.43;1.13;;;14.50;99.90;;;;;;5051197;28;20213;-72
2021/12/30 09:17:45;;;;;;;5.30;1.30;;;14.50;99.90;;;;;;5049506;28;20668;-62
2021/12/30 09:20:12;;;;;;;6.32;1.25;;;14.60;99.90;;;;;;5039677;28;20196;-65
2021/12/30 09:22:38;;;;;;;6.07;0.90;;;14.60;99.90;;;;;;5031186;28;20224;-65
2021/12/30 09:25:07;;;;;;;6.30;0.97;;;14.60;99.90;;;;;;5031023;28;20177;-65
2021/12/30 09:27:37;;;;;;;4.78;1.30;;;15.00;99.90;;;;;;5031044;28;20261;-63
2021/12/30 09:30:06;;;;;;;7.90;1.10;;;14.70;99.90;;;;;;5030784;28;20174;-64
2021/12/30 09:32:31;;;;;;;9.85;1.33;;;14.80;99.90;;;;;;5031188;28;20170;-63
2021/12/30 09:34:57;;;;;;;3.80;1.00;;;14.90;99.90;;;;;;5041549;28;20204;-64
2021/12/30 09:37:23;;;;;;;5.43;1.00;;;14.90;99.90;;;;;;5050715;28;20220;-58
2021/12/30 09:39:49;;;;;;;6.10;0.93;;;14.90;99.90;;;;;;5050839;28;20169;-63
2021/12/30 09:42:15;;;;;;;6.82;1.20;;;14.90;99.90;;;;;;5049769;28;20181;-63
2021/12/30 09:44:41;;;;;;;4.45;1.00;;;14.90;99.90;;;;;;5050820;28;20184;-65
2021/12/30 09:47:07;;;;;;;8.88;1.20;;;14.90;99.90;;;;;;5050635;28;20181;-65
2021/12/30 09:49:33;;;;;;;6.00;1.00;;;14.90;99.90;;;;;;5050624;28;20628;-65
2021/12/30 09:51:59;;;;;;;8.18;1.33;;;14.90;99.90;;;;;;5049772;28;20181;-62
2021/12/30 09:54:25;;;;;;;9.20;1.30;;;14.90;99.90;;;;;;5050030;28;20705;-63
2021/12/30 09:56:52;;;;;;;5.30;0.90;;;14.90;99.90;;;;;;5050240;28;20174;-65
2021/12/30 09:59:19;;;;;;;7.05;1.00;;;15.00;99.90;;;;;;5050544;28;20173;-59
2021/12/30 10:01:45;;;;;;;5.22;1.23;;;15.00;99.90;;;;;;5050524;28;20196;-58
2021/12/30 10:04:12;;;;;;;7.13;1.05;;;15.00;99.90;;;;;;5050427;28;20628;-58
2021/12/30 10:06:47;;;;;;;5.28;0.90;;;15.00;99.90;;;;;;5050295;28;20658;-58
2021/12/30 10:09:15;;;;;;;4.25;0.90;;;15.00;99.90;;;;;;5030779;28;20243;-58
2021/12/30 10:11:52;;;;;;;2.75;0.57;;;15.10;99.90;;;;;;5046140;28;20253;-59
2021/12/30 10:14:32;;;;;;;8.38;1.23;;;15.20;99.90;;;;;;5050370;28;20208;-58
2021/12/30 10:17:33;;;;;;;5.10;1.23;;;15.30;99.90;;;;;;5049922;28;20224;-60
2021/12/30 10:20:25;;;;;;;4.35;1.08;;;15.20;99.90;;;;;;5028015;28;20272;-59
2021/12/30 10:22:52;;;;;;;8.35;1.55;;;15.20;99.90;;;;;;5050495;28;20189;-58
2021/12/30 10:25:27;;;;;;;5.00;1.10;;;15.10;99.90;;;;;;5053959;28;20223;-60
2021/12/30 10:27:54;;;;;;;3.75;0.93;;;15.10;99.90;;;;;;5054338;28;20226;-58
2021/12/30 10:30:34;;;;;;;4.20;0.80;;;15.10;99.90;;;;;;5054181;28;20209;-59
2021/12/30 10:33:22;;;;;;;3.38;0.80;;;15.00;99.90;;;;;;5054274;28;20211;-58
2021/12/30 10:35:49;;;;;;;8.57;1.25;;;15.00;99.90;;;;;;5052034;28;20236;-57
2021/12/30 10:38:16;;;;;;;3.92;0.90;;;15.00;99.90;;;;;;5054054;28;20169;-58
2021/12/30 10:40:45;;;;;;;5.93;1.08;;;15.00;99.90;;;;;;5054135;28;20169;-63
2021/12/30 10:43:30;;;;;;;5.50;0.98;;;15.00;99.90;;;;;;5053746;28;20177;-64
2021/12/30 10:46:11;;;;;;;3.53;0.90;;;15.00;99.90;;;;;;5053985;28;20187;-62
2021/12/30 10:48:55;;;;;;;3.45;0.93;;;15.00;99.90;;;;;;5053628;28;20666;-63
2021/12/30 10:51:28;;;;;;;3.42;0.95;;;15.00;99.90;;;;;;5053599;28;20177;-64
2021/12/30 10:53:55;;;;;;;7.13;1.50;;;15.00;99.90;;;;;;5053729;28;20268;-64
2021/12/30 10:56:29;;;;;;;6.53;1.42;;;15.00;99.90;;;;;;5053923;28;20185;-64
2021/12/30 10:59:08;;;;;;;13.20;1.85;;;15.10;99.90;;;;;;5053481;28;20189;-62
2021/12/30 11:01:40;;;;;;;7.43;1.30;;;15.10;99.90;;;;;;5052414;28;20180;-63
2021/12/30 11:04:06;;;;;;;4.95;0.93;;;15.10;99.90;;;;;;5052062;28;20188;-62
2021/12/30 11:06:32;;;;;;;7.72;1.60;;;15.20;99.90;;;;;;5051967;28;20185;-62
2021/12/30 11:09:14;;;;;;;6.30;1.15;;;15.40;99.90;;;;;;5051190;28;20180;-63
2021/12/30 11:12:02;;;;;;;6.72;1.35;;;15.40;99.90;;;;;;5049476;28;20289;-62
2021/12/30 11:14:30;;;;;;;8.18;1.92;;;15.40;99.90;;;;;;5053457;28;20300;-64
2021/12/30 11:17:18;;;;;;;6.22;1.17;;;15.40;99.90;;;;;;5052562;28;20212;-62
2021/12/30 11:19:52;;;;;;;5.40;1.13;;;15.50;99.90;;;;;;5053379;28;20666;-63
2021/12/30 11:22:21;;;;;;;6.45;0.90;;;15.60;99.90;;;;;;5052791;28;20212;-62
2021/12/30 11:24:48;;;;;;;4.82;1.20;;;15.60;99.90;;;;;;5052116;28;20178;-62
2021/12/30 11:27:16;;;;;;;4.55;1.00;;;15.50;99.90;;;;;;5052878;28;20177;-62
2021/12/30 11:29:46;;;;;;;6.38;1.23;;;15.50;99.90;;;;;;5052996;28;20243;-62
2021/12/30 11:32:15;;;;;;;4.82;1.17;;;15.60;99.90;;;;;;5053108;28;20255;-61
2021/12/30 11:34:41;;;;;;;9.48;0.98;;;15.50;99.90;;;;;;5052767;28;20203;-61
2021/12/30 11:37:08;;;;;;;4.70;0.77;;;15.60;99.90;;;;;;5053047;28;20185;-63
2021/12/30 11:39:34;;;;;;;5.38;0.93;;;15.70;99.90;;;;;;5053243;28;20178;-62
2021/12/30 11:42:06;;;;;;;3.45;0.90;;;15.70;99.90;;;;;;5051621;28;20177;-63
2021/12/30 11:44:40;;;;;;;7.80;1.10;;;15.70;99.90;;;;;;5052037;28;20264;-65
2021/12/30 11:47:26;;;;;;;4.57;0.77;;;15.70;99.90;;;;;;5033102;28;20166;-65
2021/12/30 11:50:12;;;;;;;4.45;0.98;;;15.60;99.90;;;;;;5042287;28;20181;-64
2021/12/30 11:52:56;;;;;;;5.20;0.70;;;15.60;99.90;;;;;;5046087;28;20174;-63
2021/12/30 11:55:43;;;;;;;6.03;0.80;;;15.50;99.90;;;;;;5032898;28;20237;-64
2021/12/30 11:58:35;;;;;;;4.25;0.82;;;15.50;99.90;;;;;;5032855;28;20537;-63
2021/12/30 12:01:10;;;;;;;3.40;0.70;;;15.60;99.90;;;;;;5032799;28;20181;-62
2021/12/30 12:03:52;;;;;;;2.08;0.88;;;15.70;99.90;;;;;;5051565;28;20258;-62
2021/12/30 12:06:45;;;;;;;2.63;0.60;;;16.80;99.90;;;;;;5052088;28;20181;-62
2021/12/30 12:09:32;;;;;;;4.32;0.80;;;17.60;99.90;;;;;;5052415;28;20576;-63
2021/12/30 12:12:04;;;;;;;3.83;0.65;;;18.00;99.90;;;;;;5051479;28;20180;-62
2021/12/30 12:14:53;;;;;;;2.83;0.65;;;17.90;99.90;;;;;;5052377;28;20205;-63
2021/12/30 12:17:32;;;;;;;2.33;0.90;;;17.40;99.90;;;;;;5052130;28;20170;-63
2021/12/30 12:19:58;;;;;;;2.50;0.57;;;17.00;99.90;;;;;;5052205;28;20176;-64
2021/12/30 12:22:26;;;;;;;2.47;0.50;;;16.90;99.90;;;;;;5052258;28;20230;-63
2021/12/30 12:25:27;;;;;;;3.42;0.65;;;16.80;99.90;;;;;;5052199;28;20173;-63
2021/12/30 12:27:54;;;;;;;3.08;0.60;;;16.80;99.90;;;;;;5052210;28;20246;-64
2021/12/30 12:30:22;;;;;;;5.65;0.70;;;17.40;99.90;;;;;;5052001;28;20215;-64
2021/12/30 12:32:48;;;;;;;5.78;0.80;;;18.10;99.90;;;;;;5052038;28;20174;-63
2021/12/30 12:35:13;;;;;;;1.27;0.50;;;17.70;99.90;;;;;;5052094;28;20303;-64
2021/12/30 12:37:40;;;;;;;2.47;0.60;;;16.90;99.90;;;;;;5051913;28;20218;-62
2021/12/30 12:40:11;;;;;;;2.65;0.60;;;17.00;99.90;;;;;;5052052;28;20196;-63
2021/12/30 12:42:43;;;;;;;4.22;0.47;;;17.00;99.90;;;;;;5051937;28;20701;-63
2021/12/30 12:45:19;;;;;;;1.35;0.30;;;16.70;99.90;;;;;;5042858;28;20268;-70
2021/12/30 12:47:47;;;;;;;3.97;0.57;;;16.20;99.90;;;;;;5042521;28;20180;-63
2021/12/30 12:50:13;;;;;;;1.48;0.40;;;16.00;99.90;;;;;;5052003;28;20170;-62
2021/12/30 12:52:47;;;;;;;2.50;0.68;;;15.80;99.90;;;;;;5034059;28;20209;-62